sensor_id;sensor_type;location;lat;lon;timestamp;temperature;humidity
70826;SHT31;58446;41.490;22.098;2023-12-04T00:01:15;9.51;54.69
70826;SHT31;58446;41.490;22.098;2023-12-04T00:03:41;9.54;54.48
70826;SHT31;58446;41.490;22.098;2023-12-04T00:06:07;9.55;54.43
70826;SHT31;58446;41.490;22.098;2023-12-04T00:08:33;9.44;54.49
70826;SHT31;58446;41.490;22.098;2023-12-04T00:10:59;9.52;54.09
70826;SHT31;58446;41.490;22.098;2023-12-04T00:13:24;9.45;53.83
70826;SHT31;58446;41.490;22.098;2023-12-04T00:15:50;9.39;53.94
70826;SHT31;58446;41.490;22.098;2023-12-04T00:18:16;9.35;54.01
70826;SHT31;58446;41.490;22.098;2023-12-04T00:20:42;9.41;53.88
70826;SHT31;58446;41.490;22.098;2023-12-04T00:23:07;9.06;54.59
70826;SHT31;58446;41.490;22.098;2023-12-04T00:25:33;9.18;54.60
70826;SHT31;58446;41.490;22.098;2023-12-04T00:27:59;8.80;55.08
70826;SHT31;58446;41.490;22.098;2023-12-04T00:30:24;8.72;55.23
70826;SHT31;58446;41.490;22.098;2023-12-04T00:32:50;8.81;56.24
70826;SHT31;58446;41.490;22.098;2023-12-04T00:35:15;9.08;55.49
70826;SHT31;58446;41.490;22.098;2023-12-04T00:37:42;9.27;54.96
70826;SHT31;58446;41.490;22.098;2023-12-04T00:40:08;9.14;54.83
70826;SHT31;58446;41.490;22.098;2023-12-04T00:42:33;9.24;54.84
70826;SHT31;58446;41.490;22.098;2023-12-04T00:45:02;9.30;54.44
70826;SHT31;58446;41.490;22.098;2023-12-04T00:47:28;9.27;54.27
70826;SHT31;58446;41.490;22.098;2023-12-04T00:49:54;9.03;54.40
70826;SHT31;58446;41.490;22.098;2023-12-04T00:52:19;8.52;55.62
70826;SHT31;58446;41.490;22.098;2023-12-04T00:54:45;8.93;55.28
70826;SHT31;58446;41.490;22.098;2023-12-04T00:57:11;8.93;55.13
70826;SHT31;58446;41.490;22.098;2023-12-04T00:59:37;8.91;55.06
70826;SHT31;58446;41.490;22.098;2023-12-04T01:02:02;8.55;54.35
70826;SHT31;58446;41.490;22.098;2023-12-04T01:04:28;8.04;56.07
70826;SHT31;58446;41.490;22.098;2023-12-04T01:06:54;8.31;55.50
70826;SHT31;58446;41.490;22.098;2023-12-04T01:09:19;8.62;55.99
70826;SHT31;58446;41.490;22.098;2023-12-04T01:11:53;8.73;55.31
70826;SHT31;58446;41.490;22.098;2023-12-04T01:14:19;8.41;55.89
70826;SHT31;58446;41.490;22.098;2023-12-04T01:16:45;8.53;55.51
70826;SHT31;58446;41.490;22.098;2023-12-04T01:19:10;8.05;56.70
70826;SHT31;58446;41.490;22.098;2023-12-04T01:21:36;8.08;56.23
70826;SHT31;58446;41.490;22.098;2023-12-04T01:24:02;8.04;56.44
70826;SHT31;58446;41.490;22.098;2023-12-04T01:26:28;8.15;56.29
70826;SHT31;58446;41.490;22.098;2023-12-04T01:28:53;8.12;56.95
70826;SHT31;58446;41.490;22.098;2023-12-04T01:31:19;8.02;55.56
70826;SHT31;58446;41.490;22.098;2023-12-04T01:33:45;8.45;56.15
70826;SHT31;58446;41.490;22.098;2023-12-04T01:36:10;8.70;55.16
70826;SHT31;58446;41.490;22.098;2023-12-04T01:38:37;8.69;55.03
70826;SHT31;58446;41.490;22.098;2023-12-04T01:41:03;8.81;54.59
70826;SHT31;58446;41.490;22.098;2023-12-04T01:43:29;8.81;54.39
70826;SHT31;58446;41.490;22.098;2023-12-04T01:45:56;8.75;54.44
70826;SHT31;58446;41.490;22.098;2023-12-04T01:48:23;8.66;54.43
70826;SHT31;58446;41.490;22.098;2023-12-04T01:50:49;8.56;54.69
70826;SHT31;58446;41.490;22.098;2023-12-04T01:53:15;7.99;55.75
70826;SHT31;58446;41.490;22.098;2023-12-04T01:55:41;8.28;55.70
70826;SHT31;58446;41.490;22.098;2023-12-04T01:58:07;8.20;55.76
70826;SHT31;58446;41.490;22.098;2023-12-04T02:00:33;8.11;56.10
70826;SHT31;58446;41.490;22.098;2023-12-04T02:02:59;8.05;56.43
70826;SHT31;58446;41.490;22.098;2023-12-04T02:05:26;8.08;56.27
70826;SHT31;58446;41.490;22.098;2023-12-04T02:07:55;8.24;55.95
70826;SHT31;58446;41.490;22.098;2023-12-04T02:10:22;8.24;55.74
70826;SHT31;58446;41.490;22.098;2023-12-04T02:12:49;8.20;56.10
70826;SHT31;58446;41.490;22.098;2023-12-04T02:15:15;8.05;56.59
70826;SHT31;58446;41.490;22.098;2023-12-04T02:17:43;7.75;56.45
70826;SHT31;58446;41.490;22.098;2023-12-04T02:20:12;7.83;57.13
70826;SHT31;58446;41.490;22.098;2023-12-04T02:22:38;7.43;57.26
70826;SHT31;58446;41.490;22.098;2023-12-04T02:25:05;7.70;57.54
70826;SHT31;58446;41.490;22.098;2023-12-04T02:27:38;7.67;57.31
70826;SHT31;58446;41.490;22.098;2023-12-04T02:30:08;7.57;57.96
70826;SHT31;58446;41.490;22.098;2023-12-04T02:32:40;7.77;57.91
70826;SHT31;58446;41.490;22.098;2023-12-04T02:35:08;7.91;56.82
70826;SHT31;58446;41.490;22.098;2023-12-04T02:37:35;8.11;56.83
70826;SHT31;58446;41.490;22.098;2023-12-04T02:40:01;7.97;57.17
70826;SHT31;58446;41.490;22.098;2023-12-04T02:42:27;7.99;56.90
70826;SHT31;58446;41.490;22.098;2023-12-04T02:44:53;7.47;57.48
70826;SHT31;58446;41.490;22.098;2023-12-04T02:47:19;7.77;57.86
70826;SHT31;58446;41.490;22.098;2023-12-04T02:49:45;7.23;57.70
70826;SHT31;58446;41.490;22.098;2023-12-04T02:52:11;7.70;58.22
70826;SHT31;58446;41.490;22.098;2023-12-04T02:54:36;7.63;58.30
70826;SHT31;58446;41.490;22.098;2023-12-04T02:57:08;7.73;57.73
70826;SHT31;58446;41.490;22.098;2023-12-04T02:59:34;7.75;57.92
70826;SHT31;58446;41.490;22.098;2023-12-04T03:02:03;7.87;57.69
70826;SHT31;58446;41.490;22.098;2023-12-04T03:04:30;7.67;57.15
70826;SHT31;58446;41.490;22.098;2023-12-04T03:06:57;7.47;57.10
70826;SHT31;58446;41.490;22.098;2023-12-04T03:09:23;7.52;58.04
70826;SHT31;58446;41.490;22.098;2023-12-04T03:11:49;7.94;57.51
70826;SHT31;58446;41.490;22.098;2023-12-04T03:14:15;8.01;57.02
70826;SHT31;58446;41.490;22.098;2023-12-04T03:16:40;7.88;57.34
70826;SHT31;58446;41.490;22.098;2023-12-04T03:19:06;7.78;57.31
70826;SHT31;58446;41.490;22.098;2023-12-04T03:21:32;7.73;57.51
70826;SHT31;58446;41.490;22.098;2023-12-04T03:23:57;7.94;57.46
70826;SHT31;58446;41.490;22.098;2023-12-04T03:26:23;7.97;57.23
70826;SHT31;58446;41.490;22.098;2023-12-04T03:28:49;8.09;56.89
70826;SHT31;58446;41.490;22.098;2023-12-04T03:31:14;8.04;56.90
70826;SHT31;58446;41.490;22.098;2023-12-04T03:33:40;7.98;57.19
70826;SHT31;58446;41.490;22.098;2023-12-04T03:36:06;8.11;56.64
70826;SHT31;58446;41.490;22.098;2023-12-04T03:38:32;8.18;56.19
70826;SHT31;58446;41.490;22.098;2023-12-04T03:40:58;8.12;56.22
70826;SHT31;58446;41.490;22.098;2023-12-04T03:43:23;8.14;56.37
70826;SHT31;58446;41.490;22.098;2023-12-04T03:45:49;7.98;56.73
70826;SHT31;58446;41.490;22.098;2023-12-04T03:48:14;8.09;56.42
70826;SHT31;58446;41.490;22.098;2023-12-04T03:50:40;8.01;56.82
70826;SHT31;58446;41.490;22.098;2023-12-04T03:53:06;8.02;56.97
70826;SHT31;58446;41.490;22.098;2023-12-04T03:55:31;7.98;57.01
70826;SHT31;58446;41.490;22.098;2023-12-04T03:57:57;7.95;57.08
70826;SHT31;58446;41.490;22.098;2023-12-04T04:00:23;7.64;57.90
70826;SHT31;58446;41.490;22.098;2023-12-04T04:02:49;7.60;57.84
70826;SHT31;58446;41.490;22.098;2023-12-04T04:05:15;7.32;57.67
70826;SHT31;58446;41.490;22.098;2023-12-04T04:07:41;7.50;58.18
70826;SHT31;58446;41.490;22.098;2023-12-04T04:10:07;7.67;57.64
70826;SHT31;58446;41.490;22.098;2023-12-04T04:12:33;7.57;57.73
70826;SHT31;58446;41.490;22.098;2023-12-04T04:14:58;7.49;57.98
70826;SHT31;58446;41.490;22.098;2023-12-04T04:17:24;7.40;58.25
70826;SHT31;58446;41.490;22.098;2023-12-04T04:19:53;7.05;57.92
70826;SHT31;58446;41.490;22.098;2023-12-04T04:22:22;7.05;59.22
70826;SHT31;58446;41.490;22.098;2023-12-04T04:24:48;7.19;59.00
70826;SHT31;58446;41.490;22.098;2023-12-04T04:27:14;7.08;58.12
70826;SHT31;58446;41.490;22.098;2023-12-04T04:29:40;7.23;58.75
70826;SHT31;58446;41.490;22.098;2023-12-04T04:32:06;7.25;58.49
70826;SHT31;58446;41.490;22.098;2023-12-04T04:34:32;7.06;58.52
70826;SHT31;58446;41.490;22.098;2023-12-04T04:36:58;7.15;58.54
70826;SHT31;58446;41.490;22.098;2023-12-04T04:39:23;6.94;58.63
70826;SHT31;58446;41.490;22.098;2023-12-04T04:41:49;6.88;57.39
70826;SHT31;58446;41.490;22.098;2023-12-04T04:44:15;7.08;58.25
70826;SHT31;58446;41.490;22.098;2023-12-04T04:46:40;7.27;58.05
70826;SHT31;58446;41.490;22.098;2023-12-04T04:49:06;7.47;57.20
70826;SHT31;58446;41.490;22.098;2023-12-04T04:51:33;7.52;56.86
70826;SHT31;58446;41.490;22.098;2023-12-04T04:54:02;7.42;56.58
70826;SHT31;58446;41.490;22.098;2023-12-04T04:56:29;6.94;56.61
70826;SHT31;58446;41.490;22.098;2023-12-04T04:58:55;7.15;57.38
70826;SHT31;58446;41.490;22.098;2023-12-04T05:01:21;7.19;56.93
70826;SHT31;58446;41.490;22.098;2023-12-04T05:03:46;7.15;56.93
70826;SHT31;58446;41.490;22.098;2023-12-04T05:06:12;7.06;57.09
70826;SHT31;58446;41.490;22.098;2023-12-04T05:08:38;7.11;57.05
70826;SHT31;58446;41.490;22.098;2023-12-04T05:11:04;7.20;56.71
70826;SHT31;58446;41.490;22.098;2023-12-04T05:13:29;7.01;56.29
70826;SHT31;58446;41.490;22.098;2023-12-04T05:15:55;6.88;57.39
70826;SHT31;58446;41.490;22.098;2023-12-04T05:18:21;6.57;57.16
70826;SHT31;58446;41.490;22.098;2023-12-04T05:20:47;6.77;57.59
70826;SHT31;58446;41.490;22.098;2023-12-04T05:23:12;6.65;57.82
70826;SHT31;58446;41.490;22.098;2023-12-04T05:25:38;6.65;57.93
70826;SHT31;58446;41.490;22.098;2023-12-04T05:28:04;6.81;57.80
70826;SHT31;58446;41.490;22.098;2023-12-04T05:30:30;6.85;57.57
70826;SHT31;58446;41.490;22.098;2023-12-04T05:32:56;6.65;58.32
70826;SHT31;58446;41.490;22.098;2023-12-04T05:35:22;6.51;58.26
70826;SHT31;58446;41.490;22.098;2023-12-04T05:37:48;6.71;58.32
70826;SHT31;58446;41.490;22.098;2023-12-04T05:40:14;6.70;58.40
70826;SHT31;58446;41.490;22.098;2023-12-04T05:42:40;6.84;58.12
70826;SHT31;58446;41.490;22.098;2023-12-04T05:45:06;6.78;57.98
70826;SHT31;58446;41.490;22.098;2023-12-04T05:47:33;6.75;58.04
70826;SHT31;58446;41.490;22.098;2023-12-04T05:49:59;6.72;58.27
70826;SHT31;58446;41.490;22.098;2023-12-04T05:52:24;6.61;58.50
70826;SHT31;58446;41.490;22.098;2023-12-04T05:54:50;6.72;58.34
70826;SHT31;58446;41.490;22.098;2023-12-04T05:57:15;5.81;59.89
70826;SHT31;58446;41.490;22.098;2023-12-04T05:59:41;5.78;61.27
70826;SHT31;58446;41.490;22.098;2023-12-04T06:02:07;5.59;60.98
70826;SHT31;58446;41.490;22.098;2023-12-04T06:04:33;6.17;60.42
70826;SHT31;58446;41.490;22.098;2023-12-04T06:06:59;6.02;60.79
70826;SHT31;58446;41.490;22.098;2023-12-04T06:09:25;5.72;59.91
70826;SHT31;58446;41.490;22.098;2023-12-04T06:11:51;6.07;60.42
70826;SHT31;58446;41.490;22.098;2023-12-04T06:14:16;6.19;59.95
70826;SHT31;58446;41.490;22.098;2023-12-04T06:16:42;6.33;60.17
70826;SHT31;58446;41.490;22.098;2023-12-04T06:19:08;6.48;59.91
70826;SHT31;58446;41.490;22.098;2023-12-04T06:21:37;6.61;59.43
70826;SHT31;58446;41.490;22.098;2023-12-04T06:24:04;6.60;59.47
70826;SHT31;58446;41.490;22.098;2023-12-04T06:26:31;6.54;59.16
70826;SHT31;58446;41.490;22.098;2023-12-04T06:28:57;6.60;58.38
70826;SHT31;58446;41.490;22.098;2023-12-04T06:31:23;6.98;58.12
70826;SHT31;58446;41.490;22.098;2023-12-04T06:33:49;7.13;57.37
70826;SHT31;58446;41.490;22.098;2023-12-04T06:36:17;7.01;57.08
70826;SHT31;58446;41.490;22.098;2023-12-04T06:38:46;7.22;56.83
70826;SHT31;58446;41.490;22.098;2023-12-04T06:41:13;6.57;57.18
70826;SHT31;58446;41.490;22.098;2023-12-04T06:43:39;6.89;57.73
70826;SHT31;58446;41.490;22.098;2023-12-04T06:46:05;6.88;57.69
70826;SHT31;58446;41.490;22.098;2023-12-04T06:48:32;6.78;58.16
70826;SHT31;58446;41.490;22.098;2023-12-04T06:50:58;6.88;58.11
70826;SHT31;58446;41.490;22.098;2023-12-04T06:53:23;6.51;58.36
70826;SHT31;58446;41.490;22.098;2023-12-04T06:55:49;5.82;59.41
70826;SHT31;58446;41.490;22.098;2023-12-04T06:58:15;6.32;60.13
70826;SHT31;58446;41.490;22.098;2023-12-04T07:00:40;6.71;59.01
70826;SHT31;58446;41.490;22.098;2023-12-04T07:03:06;6.53;57.82
70826;SHT31;58446;41.490;22.098;2023-12-04T07:05:32;6.43;59.53
70826;SHT31;58446;41.490;22.098;2023-12-04T07:07:57;6.58;58.42
70826;SHT31;58446;41.490;22.098;2023-12-04T07:10:23;6.03;59.01
70826;SHT31;58446;41.490;22.098;2023-12-04T07:12:49;5.56;59.56
70826;SHT31;58446;41.490;22.098;2023-12-04T07:15:15;6.27;60.19
70826;SHT31;58446;41.490;22.098;2023-12-04T07:17:40;6.67;59.20
70826;SHT31;58446;41.490;22.098;2023-12-04T07:20:06;6.78;58.74
70826;SHT31;58446;41.490;22.098;2023-12-04T07:22:33;7.05;58.22
70826;SHT31;58446;41.490;22.098;2023-12-04T07:24:59;7.06;58.02
70826;SHT31;58446;41.490;22.098;2023-12-04T07:27:24;7.22;57.81
70826;SHT31;58446;41.490;22.098;2023-12-04T07:29:50;7.29;57.51
70826;SHT31;58446;41.490;22.098;2023-12-04T07:32:16;7.27;57.60
70826;SHT31;58446;41.490;22.098;2023-12-04T07:34:43;7.37;57.16
70826;SHT31;58446;41.490;22.098;2023-12-04T07:37:09;7.09;57.80
70826;SHT31;58446;41.490;22.098;2023-12-04T07:39:35;6.96;58.40
70826;SHT31;58446;41.490;22.098;2023-12-04T07:42:00;7.19;57.53
70826;SHT31;58446;41.490;22.098;2023-12-04T07:44:26;7.37;57.19
70826;SHT31;58446;41.490;22.098;2023-12-04T07:46:52;7.27;57.34
70826;SHT31;58446;41.490;22.098;2023-12-04T07:49:17;7.56;56.66
70826;SHT31;58446;41.490;22.098;2023-12-04T07:51:43;7.73;56.16
70826;SHT31;58446;41.490;22.098;2023-12-04T07:54:09;7.78;55.99
70826;SHT31;58446;41.490;22.098;2023-12-04T07:56:34;7.34;56.51
70826;SHT31;58446;41.490;22.098;2023-12-04T07:59:00;7.67;56.48
70826;SHT31;58446;41.490;22.098;2023-12-04T08:01:26;7.87;55.91
70826;SHT31;58446;41.490;22.098;2023-12-04T08:03:51;7.94;55.59
70826;SHT31;58446;41.490;22.098;2023-12-04T08:06:17;7.99;55.17
70826;SHT31;58446;41.490;22.098;2023-12-04T08:08:44;7.99;55.12
70826;SHT31;58446;41.490;22.098;2023-12-04T08:11:10;7.88;53.90
70826;SHT31;58446;41.490;22.098;2023-12-04T08:13:38;7.53;55.56
70826;SHT31;58446;41.490;22.098;2023-12-04T08:16:04;7.52;55.76
70826;SHT31;58446;41.490;22.098;2023-12-04T08:18:30;7.81;55.61
70826;SHT31;58446;41.490;22.098;2023-12-04T08:20:55;7.97;55.38
70826;SHT31;58446;41.490;22.098;2023-12-04T08:23:21;8.11;54.76
70826;SHT31;58446;41.490;22.098;2023-12-04T08:25:47;8.05;54.79
70826;SHT31;58446;41.490;22.098;2023-12-04T08:28:12;8.09;54.59
70826;SHT31;58446;41.490;22.098;2023-12-04T08:30:38;7.94;54.84
70826;SHT31;58446;41.490;22.098;2023-12-04T08:33:04;7.81;53.84
70826;SHT31;58446;41.490;22.098;2023-12-04T08:35:29;7.83;55.10
70826;SHT31;58446;41.490;22.098;2023-12-04T08:37:55;7.91;55.02
70826;SHT31;58446;41.490;22.098;2023-12-04T08:40:21;7.99;54.80
70826;SHT31;58446;41.490;22.098;2023-12-04T08:42:47;8.06;54.62
70826;SHT31;58446;41.490;22.098;2023-12-04T08:45:13;8.11;54.56
70826;SHT31;58446;41.490;22.098;2023-12-04T08:47:39;8.12;54.67
70826;SHT31;58446;41.490;22.098;2023-12-04T08:50:05;8.18;55.12
70826;SHT31;58446;41.490;22.098;2023-12-04T08:52:31;8.44;54.32
70826;SHT31;58446;41.490;22.098;2023-12-04T08:54:57;8.53;54.00
70826;SHT31;58446;41.490;22.098;2023-12-04T08:57:23;8.63;53.62
70826;SHT31;58446;41.490;22.098;2023-12-04T08:59:49;8.34;53.12
70826;SHT31;58446;41.490;22.098;2023-12-04T09:02:14;8.36;52.38
70826;SHT31;58446;41.490;22.098;2023-12-04T09:04:40;8.34;54.24
70826;SHT31;58446;41.490;22.098;2023-12-04T09:07:07;8.60;53.41
70826;SHT31;58446;41.490;22.098;2023-12-04T09:09:33;8.44;53.25
70826;SHT31;58446;41.490;22.098;2023-12-04T09:12:00;8.49;52.68
70826;SHT31;58446;41.490;22.098;2023-12-04T09:14:25;8.72;52.71
70826;SHT31;58446;41.490;22.098;2023-12-04T09:16:53;8.99;52.65
70826;SHT31;58446;41.490;22.098;2023-12-04T09:19:19;9.15;52.31
70826;SHT31;58446;41.490;22.098;2023-12-04T09:21:44;9.39;51.18
70826;SHT31;58446;41.490;22.098;2023-12-04T09:24:10;9.66;50.68
70826;SHT31;58446;41.490;22.098;2023-12-04T09:26:36;9.55;50.32
70826;SHT31;58446;41.490;22.098;2023-12-04T09:29:02;9.72;51.08
70826;SHT31;58446;41.490;22.098;2023-12-04T09:31:27;9.85;49.76
70826;SHT31;58446;41.490;22.098;2023-12-04T09:33:53;10.02;49.96
70826;SHT31;58446;41.490;22.098;2023-12-04T09:36:19;9.95;49.76
70826;SHT31;58446;41.490;22.098;2023-12-04T09:38:45;9.96;49.69
70826;SHT31;58446;41.490;22.098;2023-12-04T09:41:12;10.16;49.28
70826;SHT31;58446;41.490;22.098;2023-12-04T09:43:38;10.33;48.55
70826;SHT31;58446;41.490;22.098;2023-12-04T09:46:04;10.27;49.56
70826;SHT31;58446;41.490;22.098;2023-12-04T09:48:31;9.87;50.34
70826;SHT31;58446;41.490;22.098;2023-12-04T09:50:58;9.69;50.26
70826;SHT31;58446;41.490;22.098;2023-12-04T09:53:26;9.65;50.53
70826;SHT31;58446;41.490;22.098;2023-12-04T09:55:53;9.37;50.62
70826;SHT31;58446;41.490;22.098;2023-12-04T09:58:25;9.41;50.85
70826;SHT31;58446;41.490;22.098;2023-12-04T10:00:54;9.35;51.33
70826;SHT31;58446;41.490;22.098;2023-12-04T10:03:20;9.31;51.25
70826;SHT31;58446;41.490;22.098;2023-12-04T10:05:46;9.38;51.50
70826;SHT31;58446;41.490;22.098;2023-12-04T10:08:12;9.38;51.37
70826;SHT31;58446;41.490;22.098;2023-12-04T10:10:38;9.56;50.48
70826;SHT31;58446;41.490;22.098;2023-12-04T10:13:04;9.55;48.68
70826;SHT31;58446;41.490;22.098;2023-12-04T10:15:30;9.41;51.55
70826;SHT31;58446;41.490;22.098;2023-12-04T10:17:56;9.34;51.47
70826;SHT31;58446;41.490;22.098;2023-12-04T10:20:22;9.32;51.25
70826;SHT31;58446;41.490;22.098;2023-12-04T10:22:57;9.27;51.38
70826;SHT31;58446;41.490;22.098;2023-12-04T10:25:24;9.38;51.34
70826;SHT31;58446;41.490;22.098;2023-12-04T10:27:51;9.54;51.99
70826;SHT31;58446;41.490;22.098;2023-12-04T10:30:28;9.62;51.51
70826;SHT31;58446;41.490;22.098;2023-12-04T10:32:57;9.63;50.56
70826;SHT31;58446;41.490;22.098;2023-12-04T10:35:29;9.38;51.11
70826;SHT31;58446;41.490;22.098;2023-12-04T10:37:56;9.14;51.41
70826;SHT31;58446;41.490;22.098;2023-12-04T10:40:33;9.04;51.24
70826;SHT31;58446;41.490;22.098;2023-12-04T10:43:23;9.14;51.03
70826;SHT31;58446;41.490;22.098;2023-12-04T10:45:50;9.06;51.16
70826;SHT31;58446;41.490;22.098;2023-12-04T10:48:18;9.06;50.95
70826;SHT31;58446;41.490;22.098;2023-12-04T10:50:48;8.84;51.69
70826;SHT31;58446;41.490;22.098;2023-12-04T10:53:15;8.79;51.68
70826;SHT31;58446;41.490;22.098;2023-12-04T10:55:42;8.67;51.67
70826;SHT31;58446;41.490;22.098;2023-12-04T10:58:10;8.59;51.86
70826;SHT31;58446;41.490;22.098;2023-12-04T11:00:47;8.63;51.61
70826;SHT31;58446;41.490;22.098;2023-12-04T11:05:43;8.38;51.96
70826;SHT31;58446;41.490;22.098;2023-12-04T11:08:16;8.45;51.84
70826;SHT31;58446;41.490;22.098;2023-12-04T11:13:15;8.50;51.85
70826;SHT31;58446;41.490;22.098;2023-12-04T11:15:41;8.62;51.66
70826;SHT31;58446;41.490;22.098;2023-12-04T11:18:13;8.63;51.66
70826;SHT31;58446;41.490;22.098;2023-12-04T11:21:02;8.52;51.88
70826;SHT31;58446;41.490;22.098;2023-12-04T11:23:29;8.56;51.61
70826;SHT31;58446;41.490;22.098;2023-12-04T11:25:57;8.63;51.44
70826;SHT31;58446;41.490;22.098;2023-12-04T11:28:24;8.67;51.46
70826;SHT31;58446;41.490;22.098;2023-12-04T11:30:50;8.62;51.82
70826;SHT31;58446;41.490;22.098;2023-12-04T11:33:17;8.63;51.60
70826;SHT31;58446;41.490;22.098;2023-12-04T11:35:44;8.67;51.63
70826;SHT31;58446;41.490;22.098;2023-12-04T11:38:13;8.55;51.58
70826;SHT31;58446;41.490;22.098;2023-12-04T11:40:40;8.63;51.27
70826;SHT31;58446;41.490;22.098;2023-12-04T11:43:27;8.49;51.48
70826;SHT31;58446;41.490;22.098;2023-12-04T11:45:53;8.44;51.57
70826;SHT31;58446;41.490;22.098;2023-12-04T11:48:32;8.49;51.82
70826;SHT31;58446;41.490;22.098;2023-12-04T11:50:59;8.52;51.83
70826;SHT31;58446;41.490;22.098;2023-12-04T11:53:25;8.59;51.46
70826;SHT31;58446;41.490;22.098;2023-12-04T11:55:55;8.72;51.42
70826;SHT31;58446;41.490;22.098;2023-12-04T11:58:23;8.79;51.41
70826;SHT31;58446;41.490;22.098;2023-12-04T12:00:48;8.75;51.40
70826;SHT31;58446;41.490;22.098;2023-12-04T12:03:15;8.84;51.23
70826;SHT31;58446;41.490;22.098;2023-12-04T12:05:41;8.93;50.92
70826;SHT31;58446;41.490;22.098;2023-12-04T12:08:08;9.01;50.90
70826;SHT31;58446;41.490;22.098;2023-12-04T12:10:34;8.99;50.92
70826;SHT31;58446;41.490;22.098;2023-12-04T12:13:00;8.86;50.85
70826;SHT31;58446;41.490;22.098;2023-12-04T12:15:27;8.90;50.79
70826;SHT31;58446;41.490;22.098;2023-12-04T12:17:53;9.07;50.85
70826;SHT31;58446;41.490;22.098;2023-12-04T12:20:19;9.20;50.51
70826;SHT31;58446;41.490;22.098;2023-12-04T12:22:48;9.23;50.54
70826;SHT31;58446;41.490;22.098;2023-12-04T12:25:14;8.88;51.06
70826;SHT31;58446;41.490;22.098;2023-12-04T12:27:40;8.80;51.15
70826;SHT31;58446;41.490;22.098;2023-12-04T12:30:07;9.04;50.90
70826;SHT31;58446;41.490;22.098;2023-12-04T12:32:35;9.17;50.52
70826;SHT31;58446;41.490;22.098;2023-12-04T12:35:02;9.18;50.54
70826;SHT31;58446;41.490;22.098;2023-12-04T12:37:28;9.27;49.86
70826;SHT31;58446;41.490;22.098;2023-12-04T12:39:55;9.38;50.32
70826;SHT31;58446;41.490;22.098;2023-12-04T12:42:24;9.48;50.71
70826;SHT31;58446;41.490;22.098;2023-12-04T12:44:50;9.56;50.52
70826;SHT31;58446;41.490;22.098;2023-12-04T12:47:16;9.63;49.83
70826;SHT31;58446;41.490;22.098;2023-12-04T12:49:43;9.69;50.29
70826;SHT31;58446;41.490;22.098;2023-12-04T12:52:09;9.66;50.07
70826;SHT31;58446;41.490;22.098;2023-12-04T12:54:43;9.63;50.26
70826;SHT31;58446;41.490;22.098;2023-12-04T12:57:10;9.72;50.16
70826;SHT31;58446;41.490;22.098;2023-12-04T12:59:38;9.78;50.48
70826;SHT31;58446;41.490;22.098;2023-12-04T13:02:06;9.81;50.66
70826;SHT31;58446;41.490;22.098;2023-12-04T13:04:40;9.85;50.63
70826;SHT31;58446;41.490;22.098;2023-12-04T13:07:07;9.78;50.84
70826;SHT31;58446;41.490;22.098;2023-12-04T13:09:33;9.86;50.77
70826;SHT31;58446;41.490;22.098;2023-12-04T13:12:01;9.87;50.35
70826;SHT31;58446;41.490;22.098;2023-12-04T13:14:27;9.81;50.86
70826;SHT31;58446;41.490;22.098;2023-12-04T13:16:53;9.85;50.67
70826;SHT31;58446;41.490;22.098;2023-12-04T13:19:20;9.71;50.64
70826;SHT31;58446;41.490;22.098;2023-12-04T13:21:46;9.81;51.46
70826;SHT31;58446;41.490;22.098;2023-12-04T13:24:12;9.83;51.36
70826;SHT31;58446;41.490;22.098;2023-12-04T13:26:38;9.82;50.51
70826;SHT31;58446;41.490;22.098;2023-12-04T13:29:04;9.86;50.29
70826;SHT31;58446;41.490;22.098;2023-12-04T13:31:32;9.83;50.95
70826;SHT31;58446;41.490;22.098;2023-12-04T13:33:58;9.82;50.90
70826;SHT31;58446;41.490;22.098;2023-12-04T13:36:24;9.85;50.93
70826;SHT31;58446;41.490;22.098;2023-12-04T13:38:49;9.87;50.86
70826;SHT31;58446;41.490;22.098;2023-12-04T13:41:17;9.85;50.27
70826;SHT31;58446;41.490;22.098;2023-12-04T13:44:01;9.90;50.91
70826;SHT31;58446;41.490;22.098;2023-12-04T13:46:28;9.87;50.92
70826;SHT31;58446;41.490;22.098;2023-12-04T13:48:56;9.89;51.04
70826;SHT31;58446;41.490;22.098;2023-12-04T13:51:21;9.83;50.92
70826;SHT31;58446;41.490;22.098;2023-12-04T13:53:48;9.90;50.89
70826;SHT31;58446;41.490;22.098;2023-12-04T13:56:15;9.86;50.88
70826;SHT31;58446;41.490;22.098;2023-12-04T13:58:49;9.87;51.11
70826;SHT31;58446;41.490;22.098;2023-12-04T14:01:25;9.86;51.17
70826;SHT31;58446;41.490;22.098;2023-12-04T14:03:54;9.82;51.40
70826;SHT31;58446;41.490;22.098;2023-12-04T14:06:22;9.82;51.21
70826;SHT31;58446;41.490;22.098;2023-12-04T14:08:48;9.81;51.34
70826;SHT31;58446;41.490;22.098;2023-12-04T14:11:13;9.79;51.23
70826;SHT31;58446;41.490;22.098;2023-12-04T14:13:40;9.75;51.26
70826;SHT31;58446;41.490;22.098;2023-12-04T14:16:06;9.83;51.07
70826;SHT31;58446;41.490;22.098;2023-12-04T14:18:31;9.86;51.15
70826;SHT31;58446;41.490;22.098;2023-12-04T14:20:58;9.82;51.29
70826;SHT31;58446;41.490;22.098;2023-12-04T14:23:24;9.69;51.07
70826;SHT31;58446;41.490;22.098;2023-12-04T14:25:49;9.62;51.68
70826;SHT31;58446;41.490;22.098;2023-12-04T14:28:16;9.55;51.71
70826;SHT31;58446;41.490;22.098;2023-12-04T14:30:41;9.62;51.52
70826;SHT31;58446;41.490;22.098;2023-12-04T14:33:07;9.61;51.62
70826;SHT31;58446;41.490;22.098;2023-12-04T14:35:37;9.41;51.70
70826;SHT31;58446;41.490;22.098;2023-12-04T14:38:03;9.25;52.49
70826;SHT31;58446;41.490;22.098;2023-12-04T14:40:30;9.00;52.91
70826;SHT31;58446;41.490;22.098;2023-12-04T14:42:56;8.96;53.11
70826;SHT31;58446;41.490;22.098;2023-12-04T14:45:22;8.87;53.28
70826;SHT31;58446;41.490;22.098;2023-12-04T14:47:48;9.14;53.18
70826;SHT31;58446;41.490;22.098;2023-12-04T14:50:15;9.03;52.69
70826;SHT31;58446;41.490;22.098;2023-12-04T14:52:41;8.99;53.42
70826;SHT31;58446;41.490;22.098;2023-12-04T14:55:14;9.14;53.07
70826;SHT31;58446;41.490;22.098;2023-12-04T14:57:51;9.10;53.37
70826;SHT31;58446;41.490;22.098;2023-12-04T15:00:52;9.13;53.04
70826;SHT31;58446;41.490;22.098;2023-12-04T15:03:41;9.18;53.31
70826;SHT31;58446;41.490;22.098;2023-12-04T15:06:25;9.10;53.50
70826;SHT31;58446;41.490;22.098;2023-12-04T15:09:09;9.07;53.71
70826;SHT31;58446;41.490;22.098;2023-12-04T15:11:35;9.00;53.92
70826;SHT31;58446;41.490;22.098;2023-12-04T15:14:19;8.83;54.57
70826;SHT31;58446;41.490;22.098;2023-12-04T15:17:06;8.62;55.45
70826;SHT31;58446;41.490;22.098;2023-12-04T15:19:51;8.38;56.43
70826;SHT31;58446;41.490;22.098;2023-12-04T15:22:23;8.60;55.45
70826;SHT31;58446;41.490;22.098;2023-12-04T15:24:49;8.55;55.36
70826;SHT31;58446;41.490;22.098;2023-12-04T15:27:14;8.65;55.54
70826;SHT31;58446;41.490;22.098;2023-12-04T15:29:40;8.93;54.87
70826;SHT31;58446;41.490;22.098;2023-12-04T15:32:07;9.03;54.98
70826;SHT31;58446;41.490;22.098;2023-12-04T15:34:33;8.88;55.51